UKBB/KBP METAR and TAF weather

Enter ICAO airport designator
Station Type Date Time Source
UKBB METAR 2019/12/05 23:00 UTC NOAA

UKBB 052300Z 22004MPS CAVOK M00/M04 Q1022 R18L/190050 R18R/CLRD// NOSIG


Station Type Date Time Source
UKBB Decoded METAR 2019/12/05 23:00 UTC NOAA

Boryspil, Ukraine (UKBB) 50-20N 030-58E 122M
Dec 05, 2019 - 06:00 PM EST / 2019.12.05 2300 UTC
Wind: from the SW (220 degrees) at 9 MPH (8 KT):0
Visibility: greater than 7 mile(s):0
Temperature: 32 F (0 C)
Windchill: 24 F (-4 C):1
Dew Point: 24 F (-4 C)
Relative Humidity: 74%
Pressure (altimeter): 30.18 in. Hg (1022 hPa)
ob: UKBB 052300Z 22004MPS CAVOK M00/M04 Q1022 R18L/190050 R18R/CLRD// NOSIG
cycle: 23

Station Type Date Time Source
UKBB TAF 2019/12/05 18:25 UTC NOAA

TAF UKBB 051700Z 0518/0618 22004G09MPS 6000 SCT010 TX05/0612Z TNM02/0605Z
TEMPO 0520/0606 1200 BR OVC003 PROB40
TEMPO 0600/0606 VRB01MPS 0400 FZFG VV002

Example: see airport list